Time;durP1;ratioP1;P1;durP2;ratioP2;P2;SDS_P1;SDS_P2;PMS_P1;PMS_P2;Temp;Humidity;BMP_temperature;BMP_pressure;BME280_temperature;BME280_humidity;BME280_pressure;Samples;Min_cycle;Max_cycle;Signal;HPM_P1;HPM_P2
2023/05/26 00:02:07;;;;;;;10.10;7.90;;;13.60;99.90;;;;;;5062435;28;20384;-82
2023/05/26 00:04:32;;;;;;;9.90;7.63;;;14.20;99.90;;;;;;5064793;28;20443;-82
2023/05/26 00:06:58;;;;;;;8.60;7.80;;;14.00;99.90;;;;;;5037050;28;20412;-83
2023/05/26 00:09:24;;;;;;;10.57;8.07;;;12.50;99.90;;;;;;5084515;28;20390;-83
2023/05/26 00:11:50;;;;;;;8.90;7.82;;;13.40;99.90;;;;;;5077485;28;20394;-81
2023/05/26 00:14:16;;;;;;;9.20;7.40;;;13.50;99.90;;;;;;5094630;28;20469;-83
2023/05/26 00:16:45;;;;;;;10.27;8.15;;;13.30;99.90;;;;;;5075657;28;20485;-83
2023/05/26 00:19:12;;;;;;;10.32;7.85;;;13.80;99.90;;;;;;5056003;28;20420;-83
2023/05/26 00:21:39;;;;;;;9.85;7.65;;;13.10;99.90;;;;;;5072419;28;20398;-83
2023/05/26 00:24:05;;;;;;;9.30;7.85;;;12.90;99.90;;;;;;5069689;28;20405;-84
2023/05/26 00:26:31;;;;;;;8.68;7.88;;;13.60;99.90;;;;;;5035957;28;20382;-84
2023/05/26 00:28:56;;;;;;;8.20;7.28;;;16.40;99.90;;;;;;5037142;28;20389;-86
2023/05/26 00:31:22;;;;;;;8.63;7.82;;;13.50;99.90;;;;;;5036166;28;20389;-81
2023/05/26 00:33:48;;;;;;;10.17;7.57;;;15.30;99.90;;;;;;5071282;28;20842;-83
2023/05/26 00:36:13;;;;;;;9.27;7.67;;;13.60;99.90;;;;;;5054722;28;20480;-83
2023/05/26 00:38:39;;;;;;;9.90;7.75;;;13.70;99.90;;;;;;5073345;28;20463;-83
2023/05/26 00:41:04;;;;;;;11.85;8.60;;;12.90;99.90;;;;;;5072006;28;20375;-81
2023/05/26 00:43:30;;;;;;;9.80;8.10;;;13.20;99.90;;;;;;5094151;28;20402;-81
2023/05/26 00:45:55;;;;;;;8.50;7.60;;;13.00;99.90;;;;;;5103557;28;20778;-83
2023/05/26 00:48:21;;;;;;;10.05;8.20;;;12.70;99.90;;;;;;5077603;28;20983;-83
2023/05/26 00:50:47;;;;;;;10.40;8.50;;;12.80;99.90;;;;;;5077392;28;20374;-82
2023/05/26 00:53:13;;;;;;;9.10;8.20;;;12.90;99.90;;;;;;5061495;28;20388;-82
2023/05/26 00:55:40;;;;;;;9.30;8.05;;;12.50;99.90;;;;;;5067174;28;20467;-81
2023/05/26 00:58:06;;;;;;;10.00;7.65;;;13.30;99.90;;;;;;5092613;28;20388;-80
2023/05/26 01:00:32;;;;;;;10.23;8.00;;;13.30;99.90;;;;;;5096266;28;20422;-81
2023/05/26 01:02:58;;;;;;;9.00;7.50;;;12.90;99.90;;;;;;5096142;28;20375;-81
2023/05/26 01:05:24;;;;;;;8.70;7.80;;;12.80;99.90;;;;;;5051460;28;20496;-84
2023/05/26 01:07:50;;;;;;;7.80;7.00;;;12.90;99.90;;;;;;5038520;28;20842;-83
2023/05/26 01:10:16;;;;;;;8.50;7.60;;;12.80;99.90;;;;;;5056206;28;20399;-83
2023/05/26 01:12:52;;;;;;;9.73;7.90;;;12.70;99.90;;;;;;5056771;28;20445;-82
2023/05/26 01:15:30;;;;;;;9.40;7.50;;;13.00;99.90;;;;;;5055479;28;20909;-83
2023/05/26 01:18:13;;;;;;;9.05;7.60;;;13.30;99.90;;;;;;5045579;28;20393;-82
2023/05/26 01:20:45;;;;;;;8.10;7.30;;;12.90;99.90;;;;;;5037185;28;20394;-85
2023/05/26 01:23:27;;;;;;;8.00;7.20;;;13.00;99.90;;;;;;5055643;28;20443;-83
2023/05/26 01:26:31;;;;;;;9.95;7.10;;;12.90;99.90;;;;;;5036529;28;20390;-82
2023/05/26 01:29:04;;;;;;;9.10;7.60;;;12.90;99.90;;;;;;5038026;28;20757;-83
2023/05/26 01:31:33;;;;;;;8.35;7.43;;;12.70;99.90;;;;;;5036826;28;20425;-82
2023/05/26 01:33:59;;;;;;;8.45;7.18;;;12.60;99.90;;;;;;5042039;28;20395;-83
2023/05/26 01:36:28;;;;;;;8.10;7.30;;;12.90;99.90;;;;;;5074325;28;20403;-83
2023/05/26 01:38:54;;;;;;;8.23;7.15;;;12.50;99.90;;;;;;5058629;28;20965;-83
2023/05/26 01:41:35;;;;;;;8.13;7.32;;;12.70;99.90;;;;;;5076919;28;20415;-81
2023/05/26 01:44:00;;;;;;;9.48;7.35;;;12.70;99.90;;;;;;5075796;28;20433;-83
2023/05/26 01:46:37;;;;;;;7.97;7.27;;;12.80;99.90;;;;;;5072678;28;20792;-82
2023/05/26 01:49:05;;;;;;;8.57;7.15;;;12.50;99.90;;;;;;5055783;28;20388;-83
2023/05/26 01:51:33;;;;;;;7.90;7.10;;;12.40;99.90;;;;;;5056080;28;20387;-83
2023/05/26 01:54:01;;;;;;;8.57;7.68;;;12.60;99.90;;;;;;5061501;28;20877;-83
2023/05/26 01:56:30;;;;;;;10.02;7.78;;;12.80;99.90;;;;;;5054869;28;20447;-83
2023/05/26 01:58:57;;;;;;;9.23;7.60;;;12.20;99.90;;;;;;5077711;28;20383;-83
2023/05/26 02:01:27;;;;;;;9.57;7.00;;;12.40;99.90;;;;;;5077847;28;20380;-83
2023/05/26 02:03:53;;;;;;;7.95;7.00;;;12.40;99.90;;;;;;5057410;28;20452;-83
2023/05/26 02:06:18;;;;;;;9.05;7.40;;;12.10;99.90;;;;;;5057586;28;20432;-82
2023/05/26 02:08:44;;;;;;;8.83;7.70;;;12.40;99.90;;;;;;5057021;28;20468;-83
2023/05/26 02:11:10;;;;;;;8.90;6.57;;;;;;;;;;5056972;28;20381;-82
2023/05/26 02:13:35;;;;;;;8.52;7.13;;;12.50;99.90;;;;;;5039473;28;20464;-83
2023/05/26 02:16:01;;;;;;;8.43;7.30;;;;;;;;;;5056313;28;20424;-83
2023/05/26 02:18:27;;;;;;;9.40;7.75;;;;;;;;;;5038485;28;20387;-82
2023/05/26 02:20:53;;;;;;;12.15;7.70;;;12.60;99.90;;;;;;5057776;28;20384;-82
2023/05/26 02:23:18;;;;;;;8.60;7.25;;;12.80;99.90;;;;;;5058620;28;20616;-83
2023/05/26 02:25:45;;;;;;;8.53;6.90;;;;;;;;;;5076726;28;20777;-83
2023/05/26 02:28:10;;;;;;;10.25;7.38;;;12.50;99.90;;;;;;5077044;28;20379;-83
2023/05/26 02:30:35;;;;;;;10.05;6.90;;;12.00;99.90;;;;;;5058167;28;20391;-82
2023/05/26 02:33:01;;;;;;;9.20;7.60;;;12.20;99.90;;;;;;5076404;28;20780;-82
2023/05/26 02:35:26;;;;;;;9.60;7.20;;;12.30;99.90;;;;;;5048679;28;20475;-80
2023/05/26 02:37:52;;;;;;;8.77;6.90;;;;;;;;;;5041486;28;20401;-83
2023/05/26 02:40:18;;;;;;;9.75;7.25;;;12.10;99.90;;;;;;5041972;28;20412;-83
2023/05/26 02:42:43;;;;;;;10.10;6.57;;;11.80;99.90;;;;;;5040553;28;20392;-82
2023/05/26 02:45:09;;;;;;;7.83;7.03;;;11.80;99.90;;;;;;5039701;28;20401;-83
2023/05/26 02:47:35;;;;;;;9.02;8.07;;;12.50;99.90;;;;;;5057196;28;20370;-83
2023/05/26 02:50:01;;;;;;;8.00;6.97;;;;;;;;;;5057580;28;20409;-83
2023/05/26 02:52:27;;;;;;;9.02;7.32;;;12.00;99.90;;;;;;5039573;28;20798;-83
2023/05/26 02:54:52;;;;;;;8.10;6.90;;;12.50;99.90;;;;;;5065542;28;20379;-82
2023/05/26 02:57:18;;;;;;;9.50;7.40;;;;;;;;;;5088972;28;20498;-81
2023/05/26 02:59:44;;;;;;;7.27;6.57;;;11.80;99.90;;;;;;5059972;28;20791;-83
2023/05/26 03:02:10;;;;;;;8.23;7.30;;;11.70;99.90;;;;;;5081834;28;20383;-82
2023/05/26 03:04:36;;;;;;;9.50;7.45;;;11.80;99.90;;;;;;5079883;28;20451;-82
2023/05/26 03:07:02;;;;;;;9.80;6.90;;;;;;;;;;5050071;28;20468;-81
2023/05/26 03:09:27;;;;;;;8.60;7.05;;;11.60;99.90;;;;;;5066049;28;20448;-82
2023/05/26 03:11:53;;;;;;;8.90;6.73;;;11.80;99.90;;;;;;5069838;28;20389;-83
2023/05/26 03:14:18;;;;;;;8.90;7.37;;;12.00;99.90;;;;;;5060553;28;20586;-83
2023/05/26 03:16:44;;;;;;;7.50;6.80;;;12.00;99.90;;;;;;5056860;28;20401;-84
2023/05/26 03:19:09;;;;;;;9.82;7.70;;;11.30;99.90;;;;;;5057528;28;20991;-84
2023/05/26 03:21:35;;;;;;;10.13;7.47;;;11.80;99.90;;;;;;5038316;28;20388;-84
2023/05/26 03:24:00;;;;;;;9.53;7.67;;;11.50;99.90;;;;;;5040733;28;20386;-84
2023/05/26 03:26:26;;;;;;;11.00;7.30;;;12.20;99.90;;;;;;5075631;28;20979;-85
2023/05/26 03:28:52;;;;;;;9.00;6.93;;;11.40;99.90;;;;;;5058897;28;20943;-83
2023/05/26 03:31:17;;;;;;;10.50;7.88;;;11.50;99.90;;;;;;5058915;28;20388;-82
2023/05/26 03:33:45;;;;;;;10.33;8.20;;;11.60;99.90;;;;;;5059036;28;20403;-82
2023/05/26 03:36:10;;;;;;;8.30;7.50;;;12.20;99.90;;;;;;5057970;28;20477;-84
2023/05/26 03:38:36;;;;;;;8.77;6.60;;;11.60;99.90;;;;;;5058803;28;20375;-83
2023/05/26 03:41:01;;;;;;;8.40;7.60;;;11.20;99.90;;;;;;5077520;28;20824;-83
2023/05/26 03:43:27;;;;;;;7.60;6.80;;;12.10;99.90;;;;;;5068385;28;20400;-81
2023/05/26 03:45:53;;;;;;;7.40;6.60;;;11.90;99.90;;;;;;5043887;28;20738;-82
2023/05/26 03:48:19;;;;;;;10.30;7.43;;;11.90;99.90;;;;;;5077660;28;20383;-84
2023/05/26 03:50:46;;;;;;;7.77;6.67;;;11.60;99.90;;;;;;5057818;28;20375;-83
2023/05/26 03:53:12;;;;;;;7.43;6.22;;;11.50;99.90;;;;;;5075991;28;20391;-82
2023/05/26 03:55:37;;;;;;;8.65;6.47;;;12.10;99.90;;;;;;5074418;28;20408;-83
2023/05/26 03:58:03;;;;;;;7.82;6.78;;;11.80;99.90;;;;;;5069864;28;20428;-82
2023/05/26 04:00:31;;;;;;;7.40;6.70;;;11.80;99.90;;;;;;5038296;28;21006;-83
2023/05/26 04:02:58;;;;;;;8.77;6.45;;;12.00;99.90;;;;;;5039404;28;20428;-83
2023/05/26 04:05:23;;;;;;;7.80;6.95;;;11.40;99.90;;;;;;5053787;28;20387;-82
2023/05/26 04:07:49;;;;;;;9.20;6.90;;;11.80;99.90;;;;;;5066114;28;20402;-84
2023/05/26 04:10:15;;;;;;;9.13;7.40;;;12.00;99.90;;;;;;5070512;28;20756;-83
2023/05/26 04:12:40;;;;;;;7.33;6.63;;;11.60;99.90;;;;;;5069156;28;21633;-81
2023/05/26 04:15:08;;;;;;;10.47;7.47;;;12.10;99.90;;;;;;5076697;28;20379;-83
2023/05/26 04:17:34;;;;;;;10.10;6.80;;;11.90;99.90;;;;;;5043468;28;20411;-82
2023/05/26 04:20:00;;;;;;;8.05;6.43;;;11.30;99.90;;;;;;5057012;28;20759;-84
2023/05/26 04:22:26;;;;;;;7.70;6.70;;;;;;;;;;5047056;28;20437;-83
2023/05/26 04:24:51;;;;;;;9.10;6.87;;;12.00;99.90;;;;;;5078569;28;20407;-83
2023/05/26 04:27:17;;;;;;;9.03;6.93;;;12.30;99.90;;;;;;5042230;28;20393;-83
2023/05/26 04:29:42;;;;;;;8.30;7.15;;;11.70;99.90;;;;;;5057183;28;20381;-84
2023/05/26 04:32:11;;;;;;;8.07;6.50;;;12.10;99.90;;;;;;5038708;28;20945;-82
2023/05/26 04:34:38;;;;;;;7.68;6.35;;;11.70;99.90;;;;;;5038512;28;20401;-83
2023/05/26 04:37:04;;;;;;;7.78;6.97;;;12.40;99.90;;;;;;5053026;28;20455;-83
2023/05/26 04:39:33;;;;;;;8.60;7.28;;;11.90;99.90;;;;;;5071266;28;20414;-83
2023/05/26 04:41:59;;;;;;;9.45;6.80;;;11.80;99.90;;;;;;5076129;28;20418;-84
2023/05/26 04:44:24;;;;;;;8.45;6.95;;;11.50;99.90;;;;;;5057842;28;20392;-82
2023/05/26 04:46:52;;;;;;;11.30;7.80;;;12.60;99.90;;;;;;5057827;28;20410;-83
2023/05/26 04:49:22;;;;;;;12.15;7.72;;;12.40;99.90;;;;;;5076281;28;20384;-83
2023/05/26 04:51:50;;;;;;;8.50;7.60;;;12.40;99.90;;;;;;5079509;28;20456;-80
2023/05/26 04:54:16;;;;;;;11.00;8.00;;;12.20;99.90;;;;;;5070674;28;20384;-82
2023/05/26 04:56:41;;;;;;;11.00;8.27;;;12.90;99.90;;;;;;5066235;28;20415;-81
2023/05/26 04:59:07;;;;;;;11.70;8.10;;;12.80;99.90;;;;;;5087248;28;20371;-82
2023/05/26 05:01:32;;;;;;;9.73;8.10;;;12.30;99.90;;;;;;5062405;28;20403;-83
2023/05/26 05:03:58;;;;;;;9.70;7.80;;;12.40;99.90;;;;;;5075536;28;20531;-84
2023/05/26 05:06:23;;;;;;;11.07;8.93;;;13.00;99.90;;;;;;5042751;28;20452;-82
2023/05/26 05:08:49;;;;;;;12.48;8.57;;;12.70;99.90;;;;;;5096424;23;20426;-80
2023/05/26 05:11:14;;;;;;;11.33;8.87;;;12.80;99.90;;;;;;5096885;28;20378;-79
2023/05/26 05:13:40;;;;;;;11.30;9.53;;;12.90;99.90;;;;;;5096256;28;20385;-79
2023/05/26 05:16:06;;;;;;;12.15;9.18;;;13.00;99.90;;;;;;5093616;28;20471;-79
2023/05/26 05:18:31;;;;;;;10.00;9.00;;;13.20;99.90;;;;;;5075954;28;20398;-79
2023/05/26 05:20:57;;;;;;;11.37;8.60;;;12.70;99.90;;;;;;5073071;28;20371;-79
2023/05/26 05:23:22;;;;;;;11.03;8.93;;;12.70;99.90;;;;;;5073784;28;20376;-79
2023/05/26 05:25:49;;;;;;;9.43;8.43;;;12.80;99.90;;;;;;5071767;28;20399;-80
2023/05/26 05:28:14;;;;;;;10.65;8.70;;;13.20;99.90;;;;;;5054538;28;20904;-79
2023/05/26 05:30:40;;;;;;;13.13;9.60;;;12.70;99.90;;;;;;5072958;28;20383;-80
2023/05/26 05:33:05;;;;;;;13.13;8.85;;;12.80;99.90;;;;;;5072814;28;20426;-80
2023/05/26 05:35:31;;;;;;;10.03;9.03;;;13.00;99.90;;;;;;5053824;28;20494;-80
2023/05/26 05:37:57;;;;;;;12.27;9.67;;;13.20;99.90;;;;;;5078303;28;20395;-79
2023/05/26 05:40:23;;;;;;;12.55;8.90;;;12.70;99.90;;;;;;5083771;28;20368;-79
2023/05/26 05:42:48;;;;;;;11.07;8.85;;;13.00;99.90;;;;;;5081805;28;20412;-79
2023/05/26 05:45:14;;;;;;;11.53;9.70;;;12.70;99.90;;;;;;5065153;28;20517;-79
2023/05/26 05:47:39;;;;;;;14.10;10.70;;;13.10;99.90;;;;;;5085151;28;20460;-79
2023/05/26 05:50:05;;;;;;;15.30;10.02;;;13.20;99.90;;;;;;5075011;28;20473;-80
2023/05/26 05:52:31;;;;;;;12.07;9.80;;;13.10;99.90;;;;;;5055452;28;20408;-79
2023/05/26 05:54:57;;;;;;;13.32;9.75;;;13.10;99.90;;;;;;5073042;28;20375;-80
2023/05/26 05:57:22;;;;;;;14.02;9.95;;;12.90;99.90;;;;;;5054455;28;20468;-79
2023/05/26 05:59:48;;;;;;;14.27;9.63;;;12.90;99.90;;;;;;5072828;28;20838;-80
2023/05/26 06:02:13;;;;;;;10.90;8.90;;;12.90;99.90;;;;;;5073162;28;20396;-79
2023/05/26 06:04:39;;;;;;;14.98;9.88;;;13.00;99.90;;;;;;5045047;28;20389;-80
2023/05/26 06:07:04;;;;;;;11.20;9.30;;;13.30;99.90;;;;;;5034143;28;20488;-79
2023/05/26 06:09:30;;;;;;;14.50;9.63;;;13.00;99.90;;;;;;5034780;28;20385;-80
2023/05/26 06:11:55;;;;;;;12.48;9.63;;;13.50;99.90;;;;;;5042452;28;20463;-80
2023/05/26 06:14:21;;;;;;;14.57;9.20;;;13.00;99.90;;;;;;5072200;28;20393;-79
2023/05/26 06:16:46;;;;;;;12.10;9.63;;;13.60;99.90;;;;;;5071660;28;20407;-78
2023/05/26 06:19:12;;;;;;;11.03;9.20;;;13.40;99.90;;;;;;5072651;28;20490;-80
2023/05/26 06:21:37;;;;;;;14.20;9.40;;;13.50;99.90;;;;;;5053991;28;20388;-80
2023/05/26 06:24:03;;;;;;;12.23;8.90;;;13.20;99.90;;;;;;5054532;28;20486;-79
2023/05/26 06:26:29;;;;;;;12.73;9.00;;;13.70;99.90;;;;;;5071808;28;20866;-79
2023/05/26 06:28:54;;;;;;;10.18;8.70;;;13.40;99.90;;;;;;5074672;28;20383;-80
2023/05/26 06:31:20;;;;;;;9.90;8.73;;;13.60;99.90;;;;;;5078063;28;20388;-79
2023/05/26 06:33:45;;;;;;;12.53;10.00;;;13.40;99.90;;;;;;5077461;28;20866;-79
2023/05/26 06:36:11;;;;;;;12.57;9.10;;;13.70;99.90;;;;;;5090188;28;20479;-79
2023/05/26 06:38:36;;;;;;;11.43;9.10;;;14.00;99.90;;;;;;5073973;28;20384;-79
2023/05/26 06:41:02;;;;;;;12.00;9.00;;;13.50;99.90;;;;;;5081920;28;20970;-79
2023/05/26 06:43:27;;;;;;;11.20;8.73;;;15.50;99.90;;;;;;5075494;28;20474;-79
2023/05/26 06:45:53;;;;;;;9.43;7.47;;;13.70;99.90;;;;;;5076795;28;20467;-78
2023/05/26 06:48:18;;;;;;;13.25;8.80;;;14.10;99.90;;;;;;5063979;28;20375;-80
2023/05/26 06:50:44;;;;;;;10.00;8.10;;;14.00;99.90;;;;;;5079575;28;20499;-79
2023/05/26 06:53:09;;;;;;;10.57;8.40;;;13.80;99.90;;;;;;5083098;28;20423;-79
2023/05/26 06:55:35;;;;;;;10.90;8.52;;;14.20;99.90;;;;;;5094995;28;20406;-80
2023/05/26 06:58:00;;;;;;;11.30;8.20;;;14.30;99.90;;;;;;5055802;28;20378;-81
2023/05/26 07:00:26;;;;;;;9.70;8.02;;;14.80;99.90;;;;;;5038076;28;20777;-79
2023/05/26 07:02:51;;;;;;;10.43;8.40;;;14.50;99.90;;;;;;5075736;28;20391;-79
2023/05/26 07:05:17;;;;;;;11.37;8.60;;;14.30;99.90;;;;;;5075858;28;20394;-80
2023/05/26 07:07:42;;;;;;;9.88;8.20;;;17.00;99.90;;;;;;5075628;28;20855;-80
2023/05/26 07:10:08;;;;;;;10.45;8.50;;;14.30;99.90;;;;;;5089216;28;20466;-80
2023/05/26 07:12:34;;;;;;;9.40;7.88;;;14.60;99.90;;;;;;5076327;28;20402;-79
2023/05/26 07:14:59;;;;;;;11.47;8.40;;;14.20;99.90;;;;;;5076169;28;20384;-80
2023/05/26 07:17:25;;;;;;;9.43;8.53;;;14.40;99.90;;;;;;5056198;28;20494;-80
2023/05/26 07:19:50;;;;;;;11.93;8.02;;;14.60;99.90;;;;;;5057429;28;20825;-79
2023/05/26 07:22:16;;;;;;;10.87;7.97;;;14.40;99.90;;;;;;5075386;28;20395;-80
2023/05/26 07:24:41;;;;;;;10.60;7.97;;;14.70;99.90;;;;;;5057186;28;20399;-80
2023/05/26 07:27:07;;;;;;;13.25;7.93;;;15.30;99.90;;;;;;5075940;28;20472;-80
2023/05/26 07:29:33;;;;;;;9.98;8.35;;;14.90;99.90;;;;;;5075552;28;20908;-79
2023/05/26 07:31:59;;;;;;;13.80;8.90;;;17.80;99.90;;;;;;5078851;28;20376;-80
2023/05/26 07:34:24;;;;;;;12.53;8.40;;;14.90;99.90;;;;;;5074903;28;20877;-80
2023/05/26 07:36:50;;;;;;;10.27;7.82;;;14.80;99.90;;;;;;5056293;28;20510;-79
2023/05/26 07:39:15;;;;;;;9.40;8.25;;;15.40;99.90;;;;;;5057287;28;20444;-81
2023/05/26 07:41:41;;;;;;;11.03;7.77;;;15.00;99.90;;;;;;5075233;28;20380;-81
2023/05/26 07:44:06;;;;;;;8.98;7.90;;;15.20;99.90;;;;;;5074716;28;20474;-80
2023/05/26 07:46:32;;;;;;;10.80;8.10;;;15.50;99.90;;;;;;5055984;28;20429;-81
2023/05/26 07:48:57;;;;;;;12.63;8.10;;;15.40;99.90;;;;;;5075710;28;20396;-80
2023/05/26 07:51:23;;;;;;;10.50;8.20;;;15.60;99.90;;;;;;5076683;28;20869;-79
2023/05/26 07:53:50;;;;;;;10.50;8.20;;;15.70;99.90;;;;;;5081349;28;21462;-81
2023/05/26 07:56:16;;;;;;;9.90;8.50;;;15.40;99.90;;;;;;5055160;28;20826;-79
2023/05/26 07:58:41;;;;;;;11.63;8.18;;;16.00;99.90;;;;;;5073768;28;20793;-80
2023/05/26 08:01:07;;;;;;;11.00;7.80;;;15.50;99.90;;;;;;5056673;28;20376;-79
2023/05/26 08:03:33;;;;;;;12.50;8.33;;;15.50;99.90;;;;;;5074621;28;20746;-80
2023/05/26 08:05:59;;;;;;;10.73;7.55;;;16.20;99.90;;;;;;5074033;28;20405;-81
2023/05/26 08:08:25;;;;;;;10.50;7.70;;;16.50;99.90;;;;;;5074851;28;20435;-81
2023/05/26 08:10:52;;;;;;;10.50;7.78;;;16.10;99.90;;;;;;5073977;28;20796;-79
2023/05/26 08:13:17;;;;;;;8.97;7.50;;;15.90;99.90;;;;;;5074623;28;20470;-81
2023/05/26 08:15:43;;;;;;;10.67;7.90;;;16.50;99.90;;;;;;5056120;28;20450;-81
2023/05/26 08:18:08;;;;;;;10.50;8.50;;;16.10;99.90;;;;;;5074731;28;20473;-81
2023/05/26 08:20:34;;;;;;;11.13;7.90;;;16.20;99.90;;;;;;5074864;28;20413;-81
2023/05/26 08:23:00;;;;;;;10.67;7.53;;;16.00;99.90;;;;;;5074718;28;20419;-80
2023/05/26 08:25:26;;;;;;;9.93;8.10;;;16.40;99.90;;;;;;5063422;28;20399;-80
2023/05/26 08:27:52;;;;;;;11.13;7.90;;;16.50;99.90;;;;;;5083281;28;20390;-80
2023/05/26 08:30:17;;;;;;;9.00;7.60;;;16.90;99.90;;;;;;5074888;28;20380;-81
2023/05/26 08:32:43;;;;;;;15.88;9.35;;;16.70;99.90;;;;;;5075617;28;20449;-81
2023/05/26 08:35:09;;;;;;;11.30;8.97;;;16.70;99.90;;;;;;5074634;28;20388;-81
2023/05/26 08:37:34;;;;;;;9.80;8.23;;;16.40;99.90;;;;;;5057028;28;20438;-81
2023/05/26 08:40:02;;;;;;;9.90;8.40;;;16.90;99.90;;;;;;5080035;28;20765;-79
2023/05/26 08:42:30;;;;;;;9.48;8.10;;;16.80;99.90;;;;;;5074733;28;20418;-80
2023/05/26 08:44:59;;;;;;;12.00;8.63;;;17.30;99.90;;;;;;5090820;28;20406;-80
2023/05/26 08:47:26;;;;;;;8.90;7.60;;;16.90;99.90;;;;;;5073893;28;20432;-78
2023/05/26 08:50:05;;;;;;;9.63;7.57;;;16.90;99.90;;;;;;5076770;28;20394;-80
2023/05/26 08:52:32;;;;;;;9.88;8.38;;;17.20;99.90;;;;;;5098332;28;20394;-81
2023/05/26 08:54:58;;;;;;;13.80;8.32;;;17.00;99.90;;;;;;5078967;28;20379;-79
2023/05/26 08:57:28;;;;;;;9.00;7.10;;;17.20;99.90;;;;;;5072332;28;20921;-80
2023/05/26 08:59:53;;;;;;;12.15;8.38;;;17.30;99.90;;;;;;5069653;28;20470;-80
2023/05/26 09:02:19;;;;;;;10.90;7.50;;;18.90;99.90;;;;;;5056954;28;20438;-80
2023/05/26 09:04:44;;;;;;;12.18;8.50;;;17.50;99.90;;;;;;5046078;28;20390;-81
2023/05/26 09:07:10;;;;;;;9.63;8.03;;;17.10;99.90;;;;;;5051507;28;20465;-80
2023/05/26 09:09:36;;;;;;;10.27;8.13;;;19.10;99.90;;;;;;5053711;28;20767;-79
2023/05/26 09:12:08;;;;;;;10.10;7.70;;;17.70;99.90;;;;;;5053216;28;20384;-79
2023/05/26 09:14:33;;;;;;;11.70;7.95;;;18.10;99.90;;;;;;5068415;28;20399;-80
2023/05/26 09:16:59;;;;;;;10.80;7.10;;;17.80;99.90;;;;;;5054112;28;20855;-80
2023/05/26 09:19:26;;;;;;;10.18;8.00;;;17.80;99.90;;;;;;5073377;28;20411;-79
2023/05/26 09:21:52;;;;;;;10.70;8.10;;;17.70;99.90;;;;;;5054795;28;20475;-80
2023/05/26 09:24:23;;;;;;;11.60;8.57;;;17.90;99.90;;;;;;5073362;28;20395;-80
2023/05/26 09:26:49;;;;;;;10.13;7.90;;;17.90;99.90;;;;;;5055635;28;20484;-79
2023/05/26 09:29:16;;;;;;;7.50;6.63;;;17.90;99.90;;;;;;5056032;28;20424;-80
2023/05/26 09:31:44;;;;;;;10.75;8.07;;;19.20;99.90;;;;;;5074210;28;20608;-81
2023/05/26 09:34:10;;;;;;;9.90;8.90;;;19.10;99.90;;;;;;5074247;28;20761;-81
2023/05/26 09:36:37;;;;;;;10.93;7.40;;;18.30;99.90;;;;;;5055514;28;20427;-81
2023/05/26 09:39:05;;;;;;;11.02;8.35;;;18.90;99.90;;;;;;5074023;28;20443;-80
2023/05/26 09:41:36;;;;;;;10.82;8.43;;;18.50;99.90;;;;;;5077229;28;20447;-81
2023/05/26 09:44:10;;;;;;;9.63;7.97;;;18.30;99.90;;;;;;5092221;28;20384;-79
2023/05/26 09:46:36;;;;;;;8.37;7.47;;;17.90;99.90;;;;;;5073526;28;20384;-80
2023/05/26 09:49:07;;;;;;;12.73;8.88;;;19.30;99.90;;;;;;5081029;28;20376;-80
2023/05/26 09:51:34;;;;;;;11.20;8.07;;;18.80;99.90;;;;;;5072655;28;20390;-81
2023/05/26 09:53:59;;;;;;;11.35;8.25;;;21.30;99.90;;;;;;5072320;28;20474;-80
2023/05/26 09:56:28;;;;;;;9.70;8.80;;;19.10;99.90;;;;;;5072957;28;20470;-80
2023/05/26 09:58:55;;;;;;;10.50;8.20;;;19.10;99.90;;;;;;5073990;28;20802;-81
2023/05/26 10:01:22;;;;;;;11.83;8.30;;;19.00;99.90;;;;;;5057804;28;20415;-81
2023/05/26 10:03:49;;;;;;;14.15;8.13;;;19.10;99.90;;;;;;5072866;28;20387;-81
2023/05/26 10:06:16;;;;;;;9.17;7.50;;;;;;;;;;5070053;28;20407;-81
2023/05/26 10:08:45;;;;;;;12.48;8.32;;;18.80;99.90;;;;;;5072727;28;20456;-81
2023/05/26 10:11:11;;;;;;;10.43;8.05;;;19.10;99.90;;;;;;5073993;28;20450;-81
2023/05/26 10:13:38;;;;;;;9.75;8.40;;;19.70;99.90;;;;;;5073380;28;20719;-81
2023/05/26 10:16:04;;;;;;;11.40;8.10;;;19.80;99.90;;;;;;5048953;28;20407;-79
2023/05/26 10:18:30;;;;;;;10.77;8.00;;;19.60;99.90;;;;;;5056900;28;20437;-80
2023/05/26 10:20:59;;;;;;;10.40;8.10;;;21.50;99.90;;;;;;5061460;28;20384;-80
2023/05/26 10:23:31;;;;;;;9.20;7.83;;;20.20;99.90;;;;;;5039539;28;20387;-81
2023/05/26 10:26:07;;;;;;;11.15;7.97;;;20.30;99.90;;;;;;5067665;28;20446;-82
2023/05/26 10:28:52;;;;;;;10.98;8.40;;;19.90;99.90;;;;;;5076894;28;20743;-80
2023/05/26 10:31:33;;;;;;;10.68;8.30;;;19.80;99.90;;;;;;5077222;28;20405;-79
2023/05/26 10:33:59;;;;;;;10.00;7.47;;;20.00;99.90;;;;;;5059977;28;20449;-80
2023/05/26 10:36:28;;;;;;;8.75;7.60;;;20.00;99.90;;;;;;5079663;28;20395;-78
2023/05/26 10:38:55;;;;;;;10.80;8.05;;;;;;;;;;5067268;28;20471;-80
2023/05/26 10:41:33;;;;;;;10.30;7.80;;;20.10;99.90;;;;;;5076628;28;20384;-80
2023/05/26 10:44:00;;;;;;;12.43;9.55;;;20.30;99.90;;;;;;5076875;28;20727;-81
2023/05/26 10:46:46;;;;;;;10.13;8.30;;;20.10;99.90;;;;;;5057961;28;20465;-80
2023/05/26 10:49:22;;;;;;;11.00;8.20;;;20.30;99.90;;;;;;5077031;28;20398;-80
2023/05/26 10:51:57;;;;;;;11.43;8.07;;;20.30;99.90;;;;;;5076821;28;20885;-78
2023/05/26 10:54:24;;;;;;;9.93;8.57;;;20.00;99.90;;;;;;5076562;28;20392;-81
2023/05/26 10:56:52;;;;;;;11.57;8.10;;;20.40;99.90;;;;;;5075917;28;20488;-80
2023/05/26 10:59:31;;;;;;;10.65;7.90;;;20.80;99.90;;;;;;5038487;28;20398;-80
2023/05/26 11:02:03;;;;;;;11.20;8.30;;;20.80;99.90;;;;;;5055466;28;20392;-80
2023/05/26 11:04:45;;;;;;;8.63;7.43;;;21.80;99.90;;;;;;5058435;28;20396;-79
2023/05/26 11:07:15;;;;;;;9.20;7.85;;;21.20;99.90;;;;;;5096991;22;20433;-84
2023/05/26 11:10:02;;;;;;;10.80;7.72;;;21.30;99.90;;;;;;5079607;28;20477;-84
2023/05/26 11:12:34;;;;;;;9.93;7.70;;;21.30;99.90;;;;;;5079171;28;20382;-84
2023/05/26 11:15:31;;;;;;;9.65;7.75;;;21.40;99.90;;;;;;5097094;28;20382;-85
2023/05/26 11:18:08;;;;;;;10.32;7.97;;;21.20;99.90;;;;;;5088459;28;20384;-84
2023/05/26 11:20:34;;;;;;;11.55;8.02;;;21.30;99.90;;;;;;5058719;28;20764;-83
2023/05/26 11:23:00;;;;;;;8.90;7.60;;;;;;;;;;5076393;28;20384;-84
2023/05/26 11:25:26;;;;;;;8.97;7.60;;;22.30;99.90;;;;;;5076888;28;20417;-84
2023/05/26 11:27:52;;;;;;;9.70;6.70;;;22.10;99.90;;;;;;5058248;28;20391;-83
2023/05/26 11:30:18;;;;;;;13.55;8.00;;;22.10;99.90;;;;;;5075737;28;20406;-85
2023/05/26 11:32:46;;;;;;;9.43;8.07;;;22.40;99.90;;;;;;5076495;28;20939;-85
2023/05/26 11:35:28;;;;;;;9.13;7.15;;;24.80;99.90;;;;;;5076148;28;20793;-85
2023/05/26 11:37:55;;;;;;;10.68;7.45;;;23.70;99.90;;;;;;5079057;28;20421;-84
2023/05/26 11:40:21;;;;;;;8.60;6.70;;;25.00;99.90;;;;;;5059672;28;20441;-83
2023/05/26 11:42:54;;;;;;;9.60;7.38;;;24.10;99.90;;;;;;5057119;28;20412;-82
2023/05/26 11:45:21;;;;;;;7.95;6.45;;;26.80;99.90;;;;;;5056843;28;20472;-83
2023/05/26 11:47:51;;;;;;;8.80;6.70;;;25.40;99.90;;;;;;5057123;28;20392;-85
2023/05/26 11:50:17;;;;;;;10.13;6.60;;;25.20;99.90;;;;;;5075467;28;20383;-85
2023/05/26 11:52:45;;;;;;;8.70;6.30;;;24.80;99.90;;;;;;5075555;28;20380;-84
2023/05/26 11:55:11;;;;;;;8.18;6.50;;;25.10;99.90;;;;;;5075786;28;20383;-84
2023/05/26 11:57:38;;;;;;;8.07;6.65;;;25.90;99.90;;;;;;5075002;28;20882;-83
2023/05/26 12:00:09;;;;;;;8.32;6.47;;;27.70;99.90;;;;;;5075122;28;20392;-83
2023/05/26 12:02:35;;;;;;;7.97;6.53;;;25.50;99.90;;;;;;5057091;28;20383;-83
2023/05/26 12:05:16;;;;;;;8.48;6.22;;;26.00;99.90;;;;;;5070754;28;20418;-82
2023/05/26 12:07:42;;;;;;;8.43;6.10;;;25.50;99.90;;;;;;5068760;28;20387;-82
2023/05/26 12:10:08;;;;;;;9.93;6.70;;;26.80;99.90;;;;;;5055360;28;20388;-82
2023/05/26 12:12:50;;;;;;;10.60;6.90;;;25.60;99.90;;;;;;5050222;28;20447;-83
2023/05/26 12:15:20;;;;;;;7.35;6.55;;;25.40;99.90;;;;;;5056331;28;20880;-82
2023/05/26 12:17:47;;;;;;;7.00;6.27;;;24.90;99.90;;;;;;5080010;28;20913;-81
2023/05/26 12:20:20;;;;;;;8.48;6.43;;;25.00;99.90;;;;;;5074950;28;20426;-79
2023/05/26 12:22:50;;;;;;;6.67;6.07;;;24.30;99.90;;;;;;5065330;28;20465;-82
2023/05/26 12:25:25;;;;;;;8.17;6.47;;;25.70;99.90;;;;;;5058044;28;20376;-81
2023/05/26 12:27:51;;;;;;;7.78;6.43;;;25.50;99.90;;;;;;5056687;28;20412;-83
2023/05/26 12:30:25;;;;;;;8.18;7.10;;;25.10;99.90;;;;;;5074731;28;20421;-80
2023/05/26 12:32:51;;;;;;;9.40;6.40;;;25.90;99.90;;;;;;5062022;28;20414;-77
2023/05/26 12:35:16;;;;;;;6.70;6.10;;;25.90;99.90;;;;;;5059745;28;20384;-80
2023/05/26 12:37:42;;;;;;;7.60;6.00;;;26.10;99.90;;;;;;5075189;28;20438;-80
2023/05/26 12:40:08;;;;;;;8.18;6.60;;;;;;;;;;5072152;28;20890;-81
2023/05/26 12:42:35;;;;;;;6.30;5.70;;;27.00;99.90;;;;;;5074372;28;20376;-80
2023/05/26 12:45:01;;;;;;;6.80;6.00;;;29.20;99.90;;;;;;5056281;28;20392;-81
2023/05/26 12:47:26;;;;;;;6.63;5.95;;;25.90;99.90;;;;;;5055832;28;20395;-80